createdAt,value
2022-12-25T00:00:34.882Z,20.23
2022-12-25T00:03:37.181Z,18.95
2022-12-25T00:06:39.009Z,20.27
2022-12-25T00:09:40.775Z,23.63
2022-12-25T00:12:42.499Z,17.13
2022-12-25T00:15:44.138Z,23.45
2022-12-25T00:18:46.398Z,24.90
2022-12-25T00:21:48.039Z,20.27
2022-12-25T00:24:49.917Z,19.70
2022-12-25T00:27:51.841Z,20.52
2022-12-25T00:30:53.543Z,23.50
2022-12-25T00:33:55.274Z,27.35
2022-12-25T00:36:56.920Z,23.42
2022-12-25T00:39:59.168Z,18.50
2022-12-25T00:43:01.230Z,17.52
2022-12-25T00:46:05.884Z,12.45
2022-12-25T00:49:07.643Z,15.73
2022-12-25T00:52:09.879Z,16.73
2022-12-25T00:55:11.534Z,12.95
2022-12-25T00:58:13.346Z,16.70
2022-12-25T01:01:15.248Z,25.38
2022-12-25T01:04:17.130Z,14.90
2022-12-25T01:07:19.703Z,13.55
2022-12-25T01:10:27.326Z,16.70
2022-12-25T01:13:30.017Z,14.57
2022-12-25T01:16:31.895Z,17.65
2022-12-25T01:19:33.743Z,11.68
2022-12-25T01:22:35.514Z,14.50
2022-12-25T01:25:37.322Z,14.18
2022-12-25T01:28:39.104Z,18.05
2022-12-25T01:31:40.726Z,12.38
2022-12-25T01:34:42.306Z,10.55
2022-12-25T01:37:44.062Z,19.92
2022-12-25T01:40:45.746Z,14.60
2022-12-25T01:44:06.144Z,12.05
2022-12-25T01:47:07.756Z,15.20
2022-12-25T01:50:09.704Z,17.75
2022-12-25T01:53:12.260Z,17.70
2022-12-25T01:56:14.122Z,10.20
2022-12-25T01:59:19.670Z,12.30
2022-12-25T02:02:22.401Z,13.13
2022-12-25T02:05:29.321Z,15.07
2022-12-25T02:08:31.161Z,16.98
2022-12-25T02:11:51.543Z,12.57
2022-12-25T02:15:01.234Z,17.83
2022-12-25T02:18:19.447Z,15.07
2022-12-25T02:21:42.686Z,19.25
2022-12-25T02:25:12.748Z,18.15
2022-12-25T02:28:45.433Z,19.85
2022-12-25T02:31:59.801Z,11.95
2022-12-25T02:35:11.257Z,12.98
2022-12-25T02:38:20.438Z,18.38
2022-12-25T02:41:22.553Z,18.52
2022-12-25T02:44:44.509Z,12.93
2022-12-25T02:48:05.057Z,13.25
2022-12-25T02:51:29.470Z,13.93
2022-12-25T02:54:56.069Z,14.82
2022-12-25T02:58:20.727Z,13.85
2022-12-25T03:01:43.848Z,15.77
2022-12-25T03:05:05.705Z,12.00
2022-12-25T03:08:13.983Z,15.25
2022-12-25T03:11:34.263Z,15.27
2022-12-25T03:14:54.935Z,13.70
2022-12-25T03:17:59.413Z,14.13
2022-12-25T03:21:21.365Z,13.80
2022-12-25T03:24:41.456Z,11.18
2022-12-25T03:27:46.777Z,15.13
2022-12-25T03:31:17.223Z,17.17
2022-12-25T03:35:11.779Z,12.98
2022-12-25T03:39:04.082Z,16.33
2022-12-25T03:42:25.566Z,12.98
2022-12-25T03:45:56.667Z,14.77
2022-12-25T03:52:47.558Z,14.80
2022-12-25T03:56:10.053Z,12.60
2022-12-25T03:59:30.481Z,17.30
2022-12-25T04:02:51.537Z,17.15
2022-12-25T04:09:32.304Z,13.27
2022-12-25T04:12:52.341Z,16.08
2022-12-25T04:16:13.205Z,20.23
2022-12-25T04:19:33.369Z,12.05
2022-12-25T04:22:53.593Z,11.77
2022-12-25T04:26:17.052Z,15.63
2022-12-25T04:29:37.125Z,13.02
2022-12-25T04:32:57.510Z,19.53
2022-12-25T04:36:12.269Z,16.70
2022-12-25T04:39:14.200Z,15.55
2022-12-25T04:42:16.954Z,12.35
2022-12-25T04:45:19.355Z,13.38
2022-12-25T04:48:21.432Z,12.30
2022-12-25T04:51:25.514Z,11.30
2022-12-25T04:54:27.208Z,18.27
2022-12-25T04:57:28.787Z,13.27
2022-12-25T05:00:30.628Z,13.13
2022-12-25T05:03:32.923Z,14.77
2022-12-25T05:06:34.790Z,12.32
2022-12-25T05:09:36.404Z,9.63
2022-12-25T05:12:38.096Z,27.33
2022-12-25T05:15:40.813Z,13.73
2022-12-25T05:18:42.719Z,14.52
2022-12-25T05:21:44.345Z,12.80
2022-12-25T05:24:46.027Z,10.95
2022-12-25T05:27:53.754Z,15.45
2022-12-25T05:30:57.699Z,12.57
2022-12-25T05:33:59.639Z,13.70
2022-12-25T05:37:01.224Z,15.68
2022-12-25T05:40:03.880Z,13.38
2022-12-25T05:43:05.770Z,11.93
2022-12-25T05:46:09.857Z,11.18
2022-12-25T05:49:11.676Z,13.02
2022-12-25T05:52:13.413Z,12.65
2022-12-25T05:55:15.290Z,9.60
2022-12-25T05:58:16.931Z,11.85
2022-12-25T06:01:23.370Z,7.80
2022-12-25T06:04:25.268Z,12.50
2022-12-25T06:07:27.006Z,14.15
2022-12-25T06:10:28.747Z,10.27
2022-12-25T06:13:31.624Z,14.65
2022-12-25T06:16:37.870Z,9.50
2022-12-25T06:19:42.742Z,14.13
2022-12-25T06:22:45.873Z,11.90
2022-12-25T06:25:48.649Z,14.43
2022-12-25T06:28:50.617Z,10.45
2022-12-25T06:31:57.274Z,9.20
2022-12-25T06:34:59.205Z,11.30
2022-12-25T06:38:01.131Z,12.48
2022-12-25T06:41:05.626Z,13.52
2022-12-25T06:44:07.463Z,13.63
2022-12-25T06:47:09.247Z,10.63
2022-12-25T06:50:10.870Z,16.48
2022-12-25T06:53:12.867Z,15.40
2022-12-25T06:56:17.096Z,14.13
2022-12-25T06:59:18.826Z,16.00
2022-12-25T07:02:22.438Z,12.73
2022-12-25T07:05:24.096Z,12.70
2022-12-25T07:08:25.716Z,15.68
2022-12-25T07:11:28.359Z,15.38
2022-12-25T07:14:30.031Z,16.67
2022-12-25T07:17:35.278Z,11.13
2022-12-25T07:20:37.251Z,14.10
2022-12-25T07:23:39.526Z,20.08
2022-12-25T07:26:41.188Z,14.38
2022-12-25T07:29:43.193Z,11.90
2022-12-25T07:32:50.021Z,13.65
2022-12-25T07:35:52.163Z,11.68
2022-12-25T07:38:54.135Z,16.15
2022-12-25T07:41:57.671Z,11.10
2022-12-25T07:45:02.570Z,12.05
2022-12-25T07:48:05.778Z,12.50
2022-12-25T07:51:11.601Z,13.93
2022-12-25T07:54:13.593Z,12.88
2022-12-25T07:57:15.194Z,11.90
2022-12-25T08:00:17.752Z,13.60
2022-12-25T08:03:19.769Z,13.95
2022-12-25T08:06:23.302Z,9.35
2022-12-25T08:09:25.178Z,9.60
2022-12-25T08:12:26.977Z,12.40
2022-12-25T08:15:30.918Z,14.77
2022-12-25T08:18:32.822Z,12.05
2022-12-25T08:21:34.705Z,17.92
2022-12-25T08:24:36.591Z,17.33
2022-12-25T08:27:38.485Z,18.85
2022-12-25T08:30:40.969Z,13.20
2022-12-25T08:33:43.400Z,16.23
2022-12-25T08:36:45.117Z,17.20
2022-12-25T08:39:46.875Z,13.43
2022-12-25T08:42:48.709Z,14.70
2022-12-25T08:45:50.628Z,13.93
2022-12-25T08:48:52.424Z,12.68
2022-12-25T08:51:54.363Z,13.38
2022-12-25T08:54:56.472Z,12.45
2022-12-25T08:57:58.434Z,18.02
2022-12-25T09:01:01.033Z,16.55
2022-12-25T09:04:02.827Z,14.45
2022-12-25T09:07:04.592Z,16.42
2022-12-25T09:10:07.323Z,11.88
2022-12-25T09:13:09.926Z,14.25
2022-12-25T09:16:15.065Z,11.32
2022-12-25T09:19:17.129Z,13.50
2022-12-25T09:22:19.502Z,14.73
2022-12-25T09:25:21.536Z,11.43
2022-12-25T09:28:23.351Z,12.15
2022-12-25T09:31:25.331Z,8.68
2022-12-25T09:34:27.259Z,17.05
2022-12-25T09:37:29.638Z,15.60
2022-12-25T09:40:32.596Z,10.27
2022-12-25T09:43:43.344Z,13.70
2022-12-25T09:46:50.986Z,9.15
2022-12-25T09:50:08.701Z,12.35
2022-12-25T09:53:17.648Z,14.15
2022-12-25T09:56:26.370Z,15.07
2022-12-25T09:59:28.208Z,10.82
2022-12-25T10:02:54.692Z,12.63
2022-12-25T10:06:18.747Z,11.32
2022-12-25T10:09:29.762Z,13.73
2022-12-25T10:12:53.058Z,12.90
2022-12-25T10:16:05.368Z,13.63
2022-12-25T10:19:31.722Z,11.95
2022-12-25T10:23:00.905Z,11.55
2022-12-25T10:26:04.464Z,9.23
2022-12-25T10:29:19.968Z,12.60
2022-12-25T10:32:22.775Z,14.88
2022-12-25T10:35:28.958Z,11.70
2022-12-25T10:38:30.973Z,12.63
2022-12-25T10:42:00.384Z,16.45
2022-12-25T10:45:05.444Z,11.32
2022-12-25T10:48:08.189Z,12.77
2022-12-25T10:51:10.438Z,10.32
2022-12-25T10:54:20.939Z,12.55
2022-12-25T10:57:25.696Z,8.48
2022-12-25T11:00:32.739Z,11.23
2022-12-25T11:03:39.824Z,11.38
2022-12-25T11:06:42.958Z,12.23
2022-12-25T11:09:55.413Z,10.30
2022-12-25T11:13:01.336Z,10.27
2022-12-25T11:16:14.970Z,17.65
2022-12-25T11:19:30.735Z,12.70
2022-12-25T11:22:37.193Z,11.93
2022-12-25T11:25:39.222Z,13.02
2022-12-25T11:28:42.752Z,15.35
2022-12-25T11:31:46.442Z,12.07
2022-12-25T11:34:49.532Z,6.68
2022-12-25T11:37:52.864Z,10.10
2022-12-25T11:40:59.039Z,12.93
2022-12-25T11:44:08.152Z,11.27
2022-12-25T11:47:22.822Z,10.32
2022-12-25T11:50:29.414Z,11.82
2022-12-25T11:53:53.054Z,10.90
2022-12-25T11:56:57.846Z,10.93
2022-12-25T12:00:06.828Z,10.23
2022-12-25T12:03:28.547Z,10.73
2022-12-25T12:06:45.738Z,12.13
2022-12-25T12:09:48.362Z,8.35
2022-12-25T12:13:16.802Z,7.97
2022-12-25T12:16:18.527Z,9.90
2022-12-25T12:19:31.409Z,9.82
2022-12-25T12:22:33.164Z,13.20
2022-12-25T12:25:40.315Z,6.97
2022-12-25T12:28:47.541Z,12.13
2022-12-25T12:31:51.381Z,9.23
2022-12-25T12:34:53.410Z,8.63
2022-12-25T12:38:00.904Z,9.82
2022-12-25T12:41:06.558Z,13.68
2022-12-25T12:44:12.059Z,10.80
2022-12-25T12:47:39.458Z,8.27
2022-12-25T12:50:41.928Z,10.77
2022-12-25T12:53:44.009Z,8.65
2022-12-25T12:57:02.044Z,7.63
2022-12-25T13:00:09.917Z,7.72
2022-12-25T13:03:43.731Z,8.57
2022-12-25T13:06:51.588Z,8.38
2022-12-25T13:10:00.882Z,8.48
2022-12-25T13:13:17.908Z,8.57
2022-12-25T13:16:29.236Z,9.50
2022-12-25T13:19:31.082Z,11.98
2022-12-25T13:22:35.066Z,13.23
2022-12-25T13:25:36.929Z,10.43
2022-12-25T13:28:38.942Z,10.30
2022-12-25T13:31:42.141Z,8.27
2022-12-25T13:34:44.028Z,11.68
2022-12-25T13:37:46.063Z,9.32
2022-12-25T13:41:12.040Z,8.90
2022-12-25T13:44:23.726Z,8.85
2022-12-25T13:47:54.886Z,11.45
2022-12-25T13:50:59.703Z,6.57
2022-12-25T13:54:12.528Z,7.68
2022-12-25T13:57:14.635Z,9.60
2022-12-25T14:00:19.634Z,11.60
2022-12-25T14:03:34.720Z,10.38
2022-12-25T14:06:36.678Z,7.13
2022-12-25T14:09:40.314Z,12.52
2022-12-25T14:12:43.151Z,6.70
2022-12-25T14:15:48.074Z,11.88
2022-12-25T14:18:56.057Z,5.95
2022-12-25T14:22:11.295Z,16.58
2022-12-25T14:25:15.656Z,6.38
2022-12-25T14:28:37.911Z,6.50
2022-12-25T14:31:40.414Z,7.82
2022-12-25T14:34:46.559Z,7.70
2022-12-25T14:37:52.107Z,8.20
2022-12-25T14:41:05.894Z,11.00
2022-12-25T14:44:39.546Z,10.18
2022-12-25T14:47:52.618Z,8.40
2022-12-25T14:51:19.758Z,7.68
2022-12-25T14:54:23.561Z,9.10
2022-12-25T14:57:34.901Z,7.32
2022-12-25T15:00:39.824Z,7.38
2022-12-25T15:03:41.888Z,9.77
2022-12-25T15:07:07.483Z,7.68
2022-12-25T15:10:57.461Z,8.10
2022-12-25T15:13:36.289Z,6.30
2022-12-25T15:16:41.887Z,10.18
2022-12-25T15:19:43.693Z,7.32
2022-12-25T15:23:17.751Z,7.28
2022-12-25T15:26:14.461Z,10.85
2022-12-25T15:29:27.574Z,6.80
2022-12-25T15:32:38.626Z,10.18
2022-12-25T15:35:40.794Z,9.18
2022-12-25T15:38:42.738Z,6.38
2022-12-25T15:42:03.190Z,6.78
2022-12-25T15:45:05.284Z,7.55
2022-12-25T15:48:06.992Z,6.55
2022-12-25T15:51:08.550Z,8.32
2022-12-25T15:54:11.083Z,7.20
2022-12-25T15:57:22.204Z,6.53
2022-12-25T16:00:25.978Z,8.93
2022-12-25T16:03:27.685Z,9.15
2022-12-25T16:06:29.494Z,7.70
2022-12-25T16:09:32.313Z,7.03
2022-12-25T16:12:33.903Z,8.25
2022-12-25T16:15:35.672Z,9.73
2022-12-25T16:18:41.903Z,8.77
2022-12-25T16:21:48.503Z,7.60
2022-12-25T16:24:50.244Z,8.20
2022-12-25T16:27:51.847Z,9.70
2022-12-25T16:30:53.649Z,7.53
2022-12-25T16:33:55.279Z,7.03
2022-12-25T16:36:56.924Z,8.05
2022-12-25T16:39:58.667Z,8.25
2022-12-25T16:43:00.433Z,8.27
2022-12-25T16:46:19.170Z,13.68
2022-12-25T16:49:21.775Z,9.90
2022-12-25T16:52:24.275Z,6.93
2022-12-25T16:55:30.031Z,8.70
2022-12-25T16:58:32.047Z,8.93
2022-12-25T17:01:34.079Z,7.35
2022-12-25T17:04:36.004Z,9.57
2022-12-25T17:07:37.938Z,8.40
2022-12-25T17:10:39.681Z,7.55
2022-12-25T17:13:41.739Z,7.35
2022-12-25T17:16:43.656Z,6.15
2022-12-25T17:19:45.858Z,10.07
2022-12-25T17:22:48.905Z,11.25
2022-12-25T17:25:50.651Z,9.02
2022-12-25T17:28:52.425Z,10.25
2022-12-25T17:31:54.365Z,8.75
2022-12-25T17:34:56.302Z,9.93
2022-12-25T17:37:58.038Z,11.35
2022-12-25T17:41:01.576Z,8.15
2022-12-25T17:44:04.027Z,7.82
2022-12-25T17:47:08.805Z,7.63
2022-12-25T17:50:10.580Z,7.97
2022-12-25T17:53:12.940Z,11.32
2022-12-25T17:56:16.315Z,7.68
2022-12-25T17:59:19.036Z,8.27
2022-12-25T18:02:22.813Z,7.25
2022-12-25T18:05:24.840Z,8.05
2022-12-25T18:08:26.573Z,8.98
2022-12-25T18:11:32.778Z,9.35
2022-12-25T18:14:35.335Z,8.68
2022-12-25T18:17:39.320Z,9.05
2022-12-25T18:20:42.333Z,12.05
2022-12-25T18:23:46.376Z,9.15
2022-12-25T18:26:49.197Z,11.75
2022-12-25T18:29:52.286Z,11.40
2022-12-25T18:32:53.964Z,12.60
2022-12-25T18:36:02.564Z,9.25
2022-12-25T18:39:04.675Z,8.98
2022-12-25T18:42:25.249Z,9.25
2022-12-25T18:45:28.671Z,13.02
2022-12-25T18:48:31.716Z,10.52
2022-12-25T18:51:37.059Z,10.15
2022-12-25T18:54:39.030Z,12.18
2022-12-25T18:57:41.631Z,11.20
2022-12-25T19:00:43.539Z,13.95
2022-12-25T19:03:47.347Z,10.13
2022-12-25T19:06:49.797Z,13.40
2022-12-25T19:09:51.683Z,17.58
2022-12-25T19:12:53.576Z,12.32
2022-12-25T19:15:58.753Z,11.18
2022-12-25T19:19:01.330Z,10.45
2022-12-25T19:22:03.196Z,9.30
2022-12-25T19:25:08.100Z,14.50
2022-12-25T19:28:09.790Z,9.85
2022-12-25T19:31:12.585Z,10.27
2022-12-25T19:34:14.747Z,10.50
2022-12-25T19:37:16.606Z,9.93
2022-12-25T19:40:18.709Z,10.15
2022-12-25T19:43:20.414Z,11.95
2022-12-25T19:46:28.241Z,10.48
2022-12-25T19:49:30.870Z,11.50
2022-12-25T19:52:32.761Z,8.60
2022-12-25T19:55:34.472Z,10.40
2022-12-25T19:58:36.256Z,10.82
2022-12-25T20:01:39.094Z,12.13
2022-12-25T20:04:41.089Z,10.15
2022-12-25T20:07:42.774Z,10.15
2022-12-25T20:10:45.637Z,14.57
2022-12-25T20:13:50.335Z,10.80
2022-12-25T20:16:52.691Z,12.70
2022-12-25T20:19:54.383Z,9.73
2022-12-25T20:22:56.117Z,12.57
2022-12-25T20:26:01.910Z,10.60
2022-12-25T20:29:04.048Z,11.35
2022-12-25T20:32:09.710Z,10.60
2022-12-25T20:35:15.996Z,10.77
2022-12-25T20:38:18.060Z,13.57
2022-12-25T20:41:29.697Z,14.55
2022-12-25T20:44:31.797Z,14.82
2022-12-25T20:47:34.603Z,11.98
2022-12-25T20:50:36.871Z,10.98
2022-12-25T20:53:42.602Z,13.23
2022-12-25T20:56:48.334Z,10.82
2022-12-25T20:59:51.194Z,11.55
2022-12-25T21:02:53.090Z,14.60
2022-12-25T21:05:56.230Z,10.15
2022-12-25T21:08:57.954Z,8.85
2022-12-25T21:11:59.913Z,9.15
2022-12-25T21:15:01.764Z,9.38
2022-12-25T21:18:03.827Z,9.05
2022-12-25T21:21:08.371Z,9.90
2022-12-25T21:24:11.018Z,9.35
2022-12-25T21:27:12.809Z,10.90
2022-12-25T21:30:15.877Z,6.30
2022-12-25T21:33:36.714Z,6.95
2022-12-25T21:36:40.106Z,6.72
2022-12-25T21:39:42.890Z,5.70
2022-12-25T21:42:45.724Z,5.68
2022-12-25T21:45:47.715Z,9.23
2022-12-25T21:48:50.135Z,4.22
2022-12-25T21:52:10.096Z,6.93
2022-12-25T21:55:14.843Z,5.53
2022-12-25T21:58:16.545Z,8.25
2022-12-25T22:01:18.849Z,6.97
2022-12-25T22:04:22.796Z,10.13
2022-12-25T22:07:24.512Z,9.25
2022-12-25T22:10:26.598Z,8.27
2022-12-25T22:13:47.243Z,8.18
2022-12-25T22:17:09.105Z,9.40
2022-12-25T22:20:17.068Z,5.50
2022-12-25T22:23:19.458Z,5.90
2022-12-25T22:26:21.322Z,6.13
2022-12-25T22:29:23.253Z,6.07
2022-12-25T22:32:25.023Z,7.07
2022-12-25T22:35:26.783Z,5.95
2022-12-25T22:38:28.610Z,5.68
2022-12-25T22:41:33.645Z,5.05
2022-12-25T22:44:35.777Z,6.85
2022-12-25T22:47:38.078Z,6.43
2022-12-25T22:50:39.831Z,5.35
2022-12-25T22:53:41.655Z,6.55
2022-12-25T22:56:45.093Z,5.07
2022-12-25T22:59:46.884Z,4.10
2022-12-25T23:02:48.923Z,5.57
2022-12-25T23:05:56.521Z,4.60
2022-12-25T23:08:58.108Z,4.43
2022-12-25T23:11:59.993Z,5.57
2022-12-25T23:15:01.966Z,4.15
2022-12-25T23:18:22.380Z,3.53
2022-12-25T23:21:46.099Z,4.18
2022-12-25T23:25:06.567Z,4.07
2022-12-25T23:28:08.387Z,3.90
2022-12-25T23:31:14.047Z,3.42
2022-12-25T23:34:16.104Z,4.10
2022-12-25T23:37:18.646Z,3.85
2022-12-25T23:40:20.600Z,5.35
2022-12-25T23:43:22.335Z,4.20
2022-12-25T23:46:24.554Z,6.22
2022-12-25T23:49:27.591Z,7.72
2022-12-25T23:52:29.363Z,6.07
2022-12-25T23:55:31.058Z,4.75
2022-12-25T23:58:32.740Z,5.95
